createdAt,value
2019-04-04T00:01:37.175Z,67.35
2019-04-04T00:04:08.027Z,67.71
2019-04-04T00:06:38.887Z,68.57
2019-04-04T00:09:11.594Z,69.73
2019-04-04T00:11:42.567Z,70.09
2019-04-04T00:14:13.576Z,69.36
2019-04-04T00:16:46.748Z,69.69
2019-04-04T00:19:19.620Z,69.47
2019-04-04T00:21:50.595Z,69.79
2019-04-04T00:24:21.791Z,69.41
2019-04-04T00:26:52.970Z,70.58
2019-04-04T00:29:23.783Z,70.95
2019-04-04T00:31:54.644Z,72.11
2019-04-04T00:34:28.069Z,73.52
2019-04-04T00:36:58.789Z,74.95
2019-04-04T00:39:29.594Z,75.92
2019-04-04T00:42:00.593Z,75.93
2019-04-04T00:44:31.533Z,75.65
2019-04-04T00:47:02.923Z,76.96
2019-04-04T00:49:35.414Z,80.68
2019-04-04T00:52:10.061Z,80.63
2019-04-04T00:54:39.267Z,81.95
2019-04-04T00:57:10.214Z,82.96
2019-04-04T00:59:41.388Z,84.79
2019-04-04T01:02:12.327Z,85.44
2019-04-04T01:04:50.282Z,85.65
2019-04-04T01:07:22.664Z,87.51
2019-04-04T01:09:53.608Z,88.33
2019-04-04T01:12:24.780Z,89.70
2019-04-04T01:14:55.773Z,90.38
2019-04-04T01:17:26.630Z,90.80
2019-04-04T01:19:59.149Z,90.96
2019-04-04T01:22:30.536Z,91.27
2019-04-04T01:25:05.986Z,92.27
2019-04-04T01:27:37.575Z,93.43
2019-04-04T01:30:11.901Z,93.65
2019-04-04T01:32:42.694Z,93.80
2019-04-04T01:35:16.605Z,93.80
2019-04-04T01:37:47.579Z,94.34
2019-04-04T01:40:18.923Z,96.69
2019-04-04T01:42:51.386Z,96.78
2019-04-04T01:45:22.238Z,96.96
2019-04-04T01:47:55.827Z,97.28
2019-04-04T01:50:29.152Z,98.34
2019-04-04T01:53:00.137Z,99.09
2019-04-04T01:55:32.936Z,97.81
2019-04-04T01:58:03.966Z,99.02
2019-04-04T02:00:35.000Z,99.82
2019-04-04T02:03:06.133Z,98.74
2019-04-04T02:05:37.039Z,98.29
2019-04-04T02:08:09.281Z,98.86
2019-04-04T02:10:40.433Z,98.40
2019-04-04T02:13:11.271Z,97.99
2019-04-04T02:15:42.853Z,97.43
2019-04-04T02:18:15.137Z,97.52
2019-04-04T02:20:46.027Z,97.23
2019-04-04T02:23:17.229Z,97.00
2019-04-04T02:25:48.190Z,97.13
2019-04-04T02:28:19.038Z,95.90
2019-04-04T02:30:50.042Z,95.65
2019-04-04T02:33:21.064Z,95.29
2019-04-04T02:35:52.313Z,94.61
2019-04-04T02:38:27.180Z,93.79
2019-04-04T02:40:55.716Z,92.50
2019-04-04T02:43:28.304Z,92.26
2019-04-04T02:45:59.218Z,91.97
2019-04-04T02:48:30.131Z,91.44
2019-04-04T02:51:01.434Z,91.26
2019-04-04T02:53:32.296Z,91.30
2019-04-04T02:56:03.711Z,90.42
2019-04-04T02:58:34.644Z,91.03
2019-04-04T03:01:05.508Z,91.18
2019-04-04T03:03:41.066Z,91.53
2019-04-04T03:06:09.389Z,92.37
2019-04-04T03:08:40.352Z,93.51
2019-04-04T03:11:11.182Z,93.50
2019-04-04T03:13:42.057Z,93.33
2019-04-04T03:16:13.276Z,93.10
2019-04-04T03:18:44.142Z,93.00
2019-04-04T03:21:15.215Z,92.61
2019-04-04T03:23:46.279Z,92.14
2019-04-04T03:26:20.193Z,92.47
2019-04-04T03:28:50.743Z,92.14
2019-04-04T03:31:21.678Z,92.27
2019-04-04T03:33:53.026Z,92.25
2019-04-04T03:36:26.594Z,92.40
2019-04-04T03:39:00.204Z,94.26
2019-04-04T03:41:35.821Z,93.96
2019-04-04T03:44:10.457Z,93.75
2019-04-04T03:46:41.267Z,93.12
2019-04-04T03:49:12.488Z,93.80
2019-04-04T03:51:43.344Z,94.59
2019-04-04T03:54:22.209Z,94.64
2019-04-04T03:56:50.454Z,94.63
2019-04-04T03:59:21.239Z,93.76
2019-04-04T04:01:52.562Z,93.05
2019-04-04T04:04:27.062Z,93.63
2019-04-04T04:06:56.066Z,93.25
2019-04-04T04:09:27.294Z,93.94
2019-04-04T04:11:58.769Z,93.89
2019-04-04T04:14:29.640Z,93.60
2019-04-04T04:17:00.520Z,93.45
2019-04-04T04:19:33.798Z,93.18
2019-04-04T04:22:04.967Z,93.53
2019-04-04T04:24:36.282Z,93.58
2019-04-04T04:27:07.156Z,94.34
2019-04-04T04:29:38.432Z,94.14
2019-04-04T04:32:09.536Z,93.83
2019-04-04T04:34:40.965Z,94.00
2019-04-04T04:37:11.936Z,93.33
2019-04-04T04:39:43.397Z,93.43
2019-04-04T04:42:21.310Z,94.15
2019-04-04T04:44:52.364Z,94.52
2019-04-04T04:47:24.159Z,93.92
2019-04-04T04:49:55.580Z,94.39
2019-04-04T04:52:27.889Z,94.55
2019-04-04T04:54:58.792Z,95.61
2019-04-04T04:57:30.393Z,96.23
2019-04-04T05:00:01.563Z,95.48
2019-04-04T05:02:34.886Z,95.00
2019-04-04T05:05:07.141Z,95.13
2019-04-04T05:07:39.078Z,96.03
2019-04-04T05:10:15.059Z,96.04
2019-04-04T05:12:45.996Z,95.97
2019-04-04T05:15:16.850Z,96.13
2019-04-04T05:17:47.715Z,96.60
2019-04-04T05:20:18.651Z,98.81
2019-04-04T05:22:49.490Z,97.94
2019-04-04T05:25:20.343Z,98.66
2019-04-04T05:27:51.259Z,97.95
2019-04-04T05:30:24.872Z,97.37
2019-04-04T05:32:56.586Z,97.04
2019-04-04T05:35:31.250Z,96.75
2019-04-04T05:38:02.705Z,97.38
2019-04-04T05:40:33.594Z,97.28
2019-04-04T05:43:04.911Z,96.39
2019-04-04T05:45:39.359Z,98.10
2019-04-04T05:48:10.752Z,97.00
2019-04-04T05:50:43.610Z,96.25
2019-04-04T05:53:28.346Z,96.79
2019-04-04T05:55:59.497Z,96.88
2019-04-04T05:58:30.399Z,96.88
2019-04-04T06:01:07.864Z,97.72
2019-04-04T06:03:38.774Z,97.90
2019-04-04T06:06:10.679Z,97.78
2019-04-04T06:08:43.373Z,97.86
2019-04-04T06:11:20.961Z,99.06
2019-04-04T06:13:50.680Z,99.66
2019-04-04T06:16:21.834Z,98.38
2019-04-04T06:18:52.626Z,97.31
2019-04-04T06:21:23.496Z,96.16
2019-04-04T06:23:55.978Z,95.69
2019-04-04T06:26:26.969Z,95.81
2019-04-04T06:29:01.422Z,96.23
2019-04-04T06:31:35.328Z,96.20
2019-04-04T06:34:10.081Z,96.17
2019-04-04T06:36:38.895Z,96.60
2019-04-04T06:39:09.731Z,96.69
2019-04-04T06:41:41.040Z,98.32
2019-04-04T06:44:13.118Z,98.64
2019-04-04T06:46:44.622Z,98.93
2019-04-04T06:49:17.753Z,98.50
2019-04-04T06:51:48.619Z,97.30
2019-04-04T06:54:19.635Z,97.34
2019-04-04T06:56:50.961Z,99.59
2019-04-04T06:59:21.814Z,99.05
2019-04-04T07:01:52.727Z,99.57
2019-04-04T07:04:23.752Z,98.92
2019-04-04T07:06:59.105Z,97.40
2019-04-04T07:09:31.599Z,96.80
2019-04-04T07:12:06.744Z,96.55
2019-04-04T07:14:45.732Z,96.44
2019-04-04T07:17:16.172Z,94.28
2019-04-04T07:19:46.252Z,94.81
2019-04-04T07:22:20.505Z,92.50
2019-04-04T07:25:10.332Z,91.53
2019-04-04T07:27:43.258Z,91.33
2019-04-04T07:30:16.454Z,90.96
2019-04-04T07:32:47.526Z,89.27
2019-04-04T07:35:20.917Z,88.70
2019-04-04T07:37:57.092Z,88.79
2019-04-04T07:40:28.213Z,87.72
2019-04-04T07:42:59.762Z,85.18
2019-04-04T07:45:33.751Z,86.51
2019-04-04T07:48:07.460Z,85.37
2019-04-04T07:50:45.330Z,84.97
2019-04-04T07:53:16.578Z,84.66
2019-04-04T07:55:53.914Z,83.03
2019-04-04T07:58:26.005Z,82.12
2019-04-04T08:00:58.295Z,81.01
2019-04-04T08:03:30.874Z,80.85
2019-04-04T08:06:01.766Z,80.40
2019-04-04T08:08:34.321Z,79.10
2019-04-04T08:11:07.499Z,79.21
2019-04-04T08:13:38.485Z,78.49
2019-04-04T08:16:10.562Z,76.62
2019-04-04T08:18:46.575Z,77.48
2019-04-04T08:21:19.186Z,77.53
2019-04-04T08:23:50.468Z,77.74
2019-04-04T08:26:22.253Z,78.47
2019-04-04T08:28:53.420Z,77.27
2019-04-04T08:31:24.794Z,74.72
2019-04-04T08:33:59.111Z,74.44
2019-04-04T08:36:32.296Z,74.29
2019-04-04T08:39:03.208Z,74.42
2019-04-04T08:42:01.668Z,74.09
2019-04-04T08:44:46.748Z,71.68
2019-04-04T08:47:20.621Z,72.65
2019-04-04T08:49:51.491Z,72.16
2019-04-04T08:52:22.468Z,70.16
2019-04-04T08:54:53.566Z,70.76
2019-04-04T08:57:26.102Z,70.85
2019-04-04T08:59:57.603Z,68.45
2019-04-04T09:02:28.684Z,70.38
2019-04-04T09:09:08.898Z,68.18
2019-04-04T09:11:45.344Z,64.76
2019-04-04T09:14:18.112Z,64.93
2019-04-04T09:16:49.569Z,64.73
2019-04-04T09:19:20.789Z,64.89
2019-04-04T09:21:55.062Z,63.08
2019-04-04T09:24:26.607Z,60.66
2019-04-04T09:27:00.970Z,63.01
2019-04-04T09:29:32.148Z,60.27
2019-04-04T09:32:10.754Z,59.73
2019-04-04T09:34:41.696Z,58.24
2019-04-04T09:37:15.451Z,58.09
2019-04-04T09:39:46.934Z,57.10
2019-04-04T09:42:18.321Z,54.75
2019-04-04T09:44:52.466Z,55.69
2019-04-04T09:47:26.846Z,54.31
2019-04-04T09:49:57.927Z,53.57
2019-04-04T09:52:29.040Z,52.33
2019-04-04T09:55:01.097Z,53.13
2019-04-04T09:57:33.999Z,52.64
2019-04-04T10:00:15.240Z,52.42
2019-04-04T10:02:48.585Z,52.33
2019-04-04T10:05:23.868Z,50.70
2019-04-04T10:07:58.068Z,51.56
2019-04-04T10:10:29.496Z,49.36
2019-04-04T10:13:06.578Z,47.59
2019-04-04T10:15:39.814Z,47.09
2019-04-04T10:18:11.186Z,48.63
2019-04-04T10:20:43.698Z,44.42
2019-04-04T10:23:15.420Z,47.34
2019-04-04T10:26:12.057Z,47.31
2019-04-04T10:29:07.498Z,46.37
2019-04-04T10:31:38.429Z,46.86
2019-04-04T10:34:16.234Z,45.91
2019-04-04T10:37:07.409Z,47.64
2019-04-04T10:39:45.843Z,47.85
2019-04-04T10:42:16.746Z,46.62
2019-04-04T10:44:47.688Z,47.18
2019-04-04T10:47:21.880Z,46.64
2019-04-04T10:49:54.729Z,46.20
2019-04-04T10:52:27.850Z,45.90
2019-04-04T10:55:01.491Z,46.52
2019-04-04T10:57:34.638Z,46.42
2019-04-04T11:00:13.140Z,45.03
2019-04-04T11:02:44.279Z,44.46
2019-04-04T11:05:24.397Z,44.08
2019-04-04T11:08:01.224Z,44.90
2019-04-04T11:10:42.285Z,45.68
2019-04-04T11:13:17.554Z,46.58
2019-04-04T11:15:51.414Z,45.36
2019-04-04T11:18:25.671Z,47.07
2019-04-04T11:21:03.502Z,48.79
2019-04-04T11:23:34.662Z,49.05
2019-04-04T11:26:06.356Z,47.24
2019-04-04T11:28:42.503Z,47.27
2019-04-04T11:31:18.065Z,46.52
2019-04-04T11:33:48.968Z,47.13
2019-04-04T11:36:20.156Z,45.97
2019-04-04T11:38:52.217Z,45.94
2019-04-04T11:41:24.677Z,45.57
2019-04-04T11:44:01.080Z,45.84
2019-04-04T11:46:45.903Z,45.36
2019-04-04T11:49:18.941Z,45.37
2019-04-04T11:51:51.481Z,47.49
2019-04-04T11:54:22.420Z,46.40
2019-04-04T11:56:53.344Z,46.52
2019-04-04T11:59:24.944Z,46.71
2019-04-04T12:01:59.279Z,48.93
2019-04-04T12:04:33.337Z,49.27
2019-04-04T12:07:04.742Z,48.11
2019-04-04T12:09:36.108Z,46.58
2019-04-04T12:12:07.099Z,48.64
2019-04-04T12:14:38.455Z,48.80
2019-04-04T12:17:15.732Z,48.73
2019-04-04T12:19:47.051Z,49.83
2019-04-04T12:22:20.809Z,51.44
2019-04-04T12:24:51.766Z,50.89
2019-04-04T12:27:22.608Z,50.04
2019-04-04T12:29:53.757Z,49.36
2019-04-04T12:32:25.339Z,51.14
2019-04-04T12:34:56.232Z,50.54
2019-04-04T12:37:28.999Z,51.69
2019-04-04T12:40:00.298Z,52.34
2019-04-04T12:42:32.004Z,52.70
2019-04-04T12:45:05.303Z,54.07
2019-04-04T12:47:41.630Z,53.83
2019-04-04T12:50:14.015Z,54.85
2019-04-04T12:52:46.854Z,56.06
2019-04-04T12:55:19.357Z,54.46
2019-04-04T12:57:50.329Z,55.24
2019-04-04T13:00:26.570Z,55.15
2019-04-04T13:02:57.730Z,54.18
2019-04-04T13:05:33.838Z,52.47
2019-04-04T13:08:04.543Z,52.71
2019-04-04T13:10:38.909Z,51.82
2019-04-04T13:13:13.311Z,51.33
2019-04-04T13:15:48.222Z,52.34
2019-04-04T13:18:19.510Z,53.52
2019-04-04T13:20:51.186Z,52.64
2019-04-04T13:23:22.996Z,52.30
2019-04-04T13:25:56.932Z,51.37
2019-04-04T13:28:27.846Z,45.73
2019-04-04T13:31:02.493Z,44.50
2019-04-04T13:33:33.398Z,42.27
2019-04-04T13:36:27.527Z,40.40
2019-04-04T13:39:07.008Z,40.52
2019-04-04T13:41:44.629Z,41.81
2019-04-04T13:44:26.051Z,41.13
2019-04-04T13:47:09.609Z,40.81
2019-04-04T13:49:42.180Z,41.23
2019-04-04T13:52:29.655Z,41.03
2019-04-04T13:55:43.663Z,39.98
2019-04-04T13:58:47.469Z,40.66
2019-04-04T14:01:55.048Z,40.12
2019-04-04T14:04:27.926Z,40.50
2019-04-04T14:07:03.078Z,42.19
2019-04-04T14:09:36.972Z,39.94
2019-04-04T14:12:07.912Z,39.90
2019-04-04T14:14:45.216Z,39.69
2019-04-04T14:17:16.256Z,39.99
2019-04-04T14:19:47.967Z,40.08
2019-04-04T14:22:20.310Z,40.43
2019-04-04T14:24:53.963Z,42.17
2019-04-04T14:27:27.354Z,40.67
2019-04-04T14:29:59.108Z,39.35
2019-04-04T14:32:31.810Z,39.98
2019-04-04T14:35:03.733Z,42.20
2019-04-04T14:37:39.041Z,49.72
2019-04-04T14:40:15.295Z,51.21
2019-04-04T14:43:03.430Z,51.97
2019-04-04T14:45:39.042Z,50.99
2019-04-04T14:48:11.097Z,50.71
2019-04-04T14:50:47.666Z,51.38
2019-04-04T14:53:21.848Z,48.18
2019-04-04T14:55:53.996Z,49.07
2019-04-04T14:58:25.520Z,49.76
2019-04-04T15:00:56.796Z,48.09
2019-04-04T15:03:28.493Z,48.43
2019-04-04T15:06:00.454Z,46.97
2019-04-04T15:08:35.765Z,42.42
2019-04-04T15:11:23.176Z,38.88
2019-04-04T15:13:47.202Z,37.69
2019-04-04T15:16:25.620Z,39.91
2019-04-04T15:18:57.027Z,39.18
2019-04-04T15:21:28.536Z,37.94
2019-04-04T15:24:01.836Z,38.48
2019-04-04T15:26:34.315Z,37.49
2019-04-04T15:29:08.835Z,38.26
2019-04-04T15:31:44.980Z,38.77
2019-04-04T15:34:38.380Z,38.87
2019-04-04T15:37:15.601Z,40.61
2019-04-04T15:39:48.664Z,40.91
2019-04-04T15:42:28.437Z,41.88
2019-04-04T15:45:00.428Z,40.89
2019-04-04T15:47:36.476Z,40.36
2019-04-04T15:50:10.328Z,42.16
2019-04-04T15:53:03.664Z,39.85
2019-04-04T15:55:36.358Z,41.32
2019-04-04T15:58:16.668Z,40.23
2019-04-04T16:00:49.383Z,40.39
2019-04-04T16:03:27.361Z,40.29
2019-04-04T16:06:03.597Z,40.78
2019-04-04T16:08:36.303Z,41.62
2019-04-04T16:11:16.819Z,41.60
2019-04-04T16:13:55.526Z,42.14
2019-04-04T16:16:27.511Z,41.12
2019-04-04T16:19:08.378Z,41.71
2019-04-04T16:21:41.170Z,42.43
2019-04-04T16:24:12.952Z,43.61
2019-04-04T16:26:56.653Z,43.48
2019-04-04T16:29:28.135Z,46.06
2019-04-04T16:32:00.380Z,43.93
2019-04-04T16:34:37.339Z,45.50
2019-04-04T16:37:10.420Z,45.99
2019-04-04T16:39:42.828Z,46.10
2019-04-04T16:42:14.481Z,47.84
2019-04-04T16:44:48.201Z,49.15
2019-04-04T16:48:25.188Z,50.09
2019-04-04T16:51:10.991Z,48.94
2019-04-04T16:54:02.724Z,50.04
2019-04-04T16:57:02.685Z,52.01
2019-04-04T16:59:44.779Z,51.88
2019-04-04T17:02:16.468Z,54.49
2019-04-04T17:04:50.500Z,55.09
2019-04-04T17:07:26.280Z,55.28
2019-04-04T17:09:58.033Z,55.16
2019-04-04T17:12:29.913Z,57.16
2019-04-04T17:15:01.796Z,57.54
2019-04-04T17:17:41.374Z,57.03
2019-04-04T17:20:14.855Z,58.16
2019-04-04T17:22:52.244Z,59.13
2019-04-04T17:25:24.168Z,59.25
2019-04-04T17:27:57.437Z,59.53
2019-04-04T17:30:33.545Z,59.20
2019-04-04T17:33:09.548Z,59.88
2019-04-04T17:35:41.919Z,60.93
2019-04-04T17:38:13.897Z,62.33
2019-04-04T17:40:46.547Z,61.92
2019-04-04T17:43:22.349Z,61.58
2019-04-04T17:45:56.426Z,60.19
2019-04-04T17:48:32.648Z,57.25
2019-04-04T17:51:07.888Z,55.84
2019-04-04T17:53:47.952Z,57.86
2019-04-04T17:56:22.439Z,63.96
2019-04-04T17:59:03.379Z,66.89
2019-04-04T18:01:38.440Z,68.33
2019-04-04T18:04:10.645Z,69.15
2019-04-04T18:06:44.533Z,69.48
2019-04-04T18:09:16.758Z,70.61
2019-04-04T18:11:54.060Z,70.95
2019-04-04T18:14:26.266Z,71.40
2019-04-04T18:16:58.621Z,71.62
2019-04-04T18:19:31.910Z,71.34
2019-04-04T18:22:06.752Z,71.88
2019-04-04T18:24:40.554Z,73.93
2019-04-04T18:27:20.873Z,74.45
2019-04-04T18:30:00.446Z,74.28
2019-04-04T18:32:34.201Z,74.96
2019-04-04T18:35:17.612Z,76.22
2019-04-04T18:38:26.185Z,77.03
2019-04-04T18:41:21.407Z,77.77
2019-04-04T18:43:56.441Z,77.75
2019-04-04T18:46:29.139Z,78.98
2019-04-04T18:49:04.830Z,79.53
2019-04-04T18:51:41.646Z,78.28
2019-04-04T18:54:33.366Z,79.31
2019-04-04T18:57:07.474Z,80.08
2019-04-04T18:59:41.720Z,79.81
2019-04-04T19:02:16.020Z,80.58
2019-04-04T19:04:55.928Z,81.20
2019-04-04T19:07:39.273Z,82.54
2019-04-04T19:10:04.223Z,80.90
2019-04-04T19:12:36.421Z,82.88
2019-04-04T19:15:12.376Z,82.85
2019-04-04T19:17:44.676Z,83.22
2019-04-04T19:20:24.289Z,83.93
2019-04-04T19:23:04.299Z,83.13
2019-04-04T19:25:39.792Z,82.59
2019-04-04T19:28:16.913Z,83.43
2019-04-04T19:30:58.466Z,83.14
2019-04-04T19:33:39.439Z,84.35
2019-04-04T19:36:14.657Z,83.47
2019-04-04T19:39:00.592Z,84.53
2019-04-04T19:41:38.212Z,84.67
2019-04-04T19:44:10.796Z,86.51
2019-04-04T19:46:49.869Z,86.12
2019-04-04T19:49:23.818Z,86.18
2019-04-04T19:51:58.790Z,86.68
2019-04-04T19:54:44.059Z,87.98
2019-04-04T19:57:37.159Z,88.71
2019-04-04T20:00:27.268Z,89.79
2019-04-04T20:03:04.199Z,89.73
2019-04-04T20:05:44.526Z,89.67
2019-04-04T20:08:32.557Z,89.23
2019-04-04T20:11:10.805Z,89.49
2019-04-04T20:13:46.495Z,89.04
2019-04-04T20:16:19.739Z,89.03
2019-04-04T20:19:08.443Z,88.67
2019-04-04T20:21:41.315Z,88.37
2019-04-04T20:24:16.334Z,88.16
2019-04-04T20:26:53.849Z,87.54
2019-04-04T20:29:27.777Z,87.88
2019-04-04T20:32:14.369Z,87.89
2019-04-04T20:35:05.300Z,88.66
2019-04-04T20:37:38.990Z,88.46
2019-04-04T20:40:13.064Z,87.86
2019-04-04T20:42:46.048Z,87.56
2019-04-04T20:45:19.935Z,87.13
2019-04-04T20:47:53.669Z,87.46
2019-04-04T20:50:37.954Z,87.67
2019-04-04T20:53:08.894Z,88.03
2019-04-04T20:55:45.324Z,87.52
2019-04-04T20:58:20.895Z,87.85
2019-04-04T21:00:57.080Z,88.03
2019-04-04T21:03:35.469Z,88.41
2019-04-04T21:06:11.287Z,88.26
2019-04-04T21:08:48.554Z,88.37
2019-04-04T21:11:29.100Z,88.00
2019-04-04T21:14:02.250Z,88.77
2019-04-04T21:16:33.317Z,88.99
2019-04-04T21:19:10.537Z,88.90
2019-04-04T21:21:41.773Z,89.23
2019-04-04T21:24:16.077Z,88.76
2019-04-04T21:26:49.598Z,89.57
2019-04-04T21:29:25.968Z,89.24
2019-04-04T21:31:57.134Z,89.21
2019-04-04T21:34:28.050Z,89.52
2019-04-04T21:37:05.483Z,90.08
2019-04-04T21:39:36.633Z,89.81
2019-04-04T21:42:11.415Z,90.28
2019-04-04T21:44:45.494Z,90.36
2019-04-04T21:47:22.461Z,90.54
2019-04-04T21:49:53.281Z,90.26
2019-04-04T21:52:26.621Z,90.22
2019-04-04T21:54:58.132Z,90.10
2019-04-04T21:57:29.163Z,89.88
2019-04-04T22:00:00.101Z,90.37
2019-04-04T22:02:38.654Z,90.63
2019-04-04T22:05:19.593Z,91.54
2019-04-04T22:07:53.671Z,91.15
2019-04-04T22:10:24.926Z,90.94
2019-04-04T22:13:00.575Z,91.30
2019-04-04T22:15:34.231Z,91.87
2019-04-04T22:18:06.454Z,91.62
2019-04-04T22:20:43.640Z,91.87
2019-04-04T22:23:14.591Z,92.03
2019-04-04T22:25:50.199Z,91.85
2019-04-04T22:28:21.520Z,92.07
2019-04-04T22:31:00.482Z,91.96
2019-04-04T22:33:30.086Z,92.43
2019-04-04T22:36:00.979Z,92.65
2019-04-04T22:38:32.186Z,92.58
2019-04-04T22:41:03.241Z,93.29
2019-04-04T22:43:34.381Z,93.76
2019-04-04T22:46:05.419Z,93.72
2019-04-04T22:48:36.406Z,93.73
2019-04-04T22:51:07.703Z,94.17
2019-04-04T22:53:38.650Z,94.22
2019-04-04T22:56:09.537Z,94.33
2019-04-04T22:58:40.461Z,93.94
2019-04-04T23:01:11.315Z,93.80
2019-04-04T23:03:42.549Z,93.29
2019-04-04T23:06:13.369Z,93.08
2019-04-04T23:08:47.107Z,92.59
2019-04-04T23:11:17.982Z,92.66
2019-04-04T23:13:54.642Z,92.74
2019-04-04T23:16:25.505Z,93.08
2019-04-04T23:18:59.610Z,93.29
2019-04-04T23:21:30.574Z,92.95
2019-04-04T23:24:01.440Z,92.48
2019-04-04T23:26:32.442Z,92.70
2019-04-04T23:29:03.265Z,93.18
2019-04-04T23:31:34.519Z,92.64
2019-04-04T23:34:05.370Z,92.46
2019-04-04T23:36:36.480Z,92.47
2019-04-04T23:39:08.539Z,93.19
2019-04-04T23:41:39.379Z,93.43
2019-04-04T23:44:10.254Z,93.11
2019-04-04T23:46:41.836Z,93.01
2019-04-04T23:49:12.754Z,93.30
2019-04-04T23:51:47.853Z,93.11
2019-04-04T23:54:19.120Z,93.21
2019-04-04T23:56:50.140Z,93.90
2019-04-04T23:59:21.465Z,94.01
